METAR AND TAF INFORMATION
METAR FOR FMCZ
ADDS - METARS form results

(1403 UTC 22 February 2019)
Data provider http://aviationweather.gov/metar/data/
 
METAR text: FMCZ 221400Z AUTO 20010KT 9999 BKN027 31/25 Q1008 BECMG 29010KT
Conditions at: FMCZ (DZAOUDZI/PAMANZI, KM) observed 1400 UTC 22 February 2019
Temperature: 31.0°C (88°F)
Dewpoint: 25.0°C (77°F) [RH = 71%]
Pressure (altimeter): 29.76 inches Hg (1008.0 mb)
Winds: from the SSW (200 degrees) at 12 MPH (10 knots; 5.1 m/s)
Visibility: 6 or more miles (10+ km)
Ceiling: 2700 feet AGL
Clouds: broken clouds at 2700 feet AGL
Weather: no significant weather observed at this time

METAR text: FMCZ 221330Z AUTO 21009KT 9999 FEW027 SCT054 32/26 Q1008 BECMG 29010KT
Conditions at: FMCZ (DZAOUDZI/PAMANZI, KM) observed 1330 UTC 22 February 2019
Temperature: 32.0°C (90°F)
Dewpoint: 26.0°C (79°F) [RH = 71%]
Pressure (altimeter): 29.76 inches Hg (1008.0 mb)
Winds: from the SSW (210 degrees) at 10 MPH (9 knots; 4.6 m/s)
Visibility: 6 or more miles (10+ km)
Ceiling: at least 12,000 feet AGL
Clouds: few clouds at 2700 feet AGL
scattered clouds at 5400 feet AGL
Weather: no significant weather observed at this time

Forecast for: FMCZ (DZAOUDZI/PAMANZI, KM)
Text: TAF FMCZ 221100Z 2212/2312 29010KT 9999 SCT028 BKN033
Forecast period: 1200 UTC 22 February 2019 to 1200 UTC 23 February 2019
Forecast type: FROM: standard forecast or significant change
Winds: from the WNW (290 degrees) at 12 MPH (10 knots; 5.1 m/s)
Visibility: 6 or more miles 10+ km)
Ceiling: 3300 feet AGL
Clouds: scattered clouds at 2800 feet AGL
broken clouds at 3300 feet AGL
Weather: no significant weather forecast for this period
Text: TEMPO 2308/2312 TSRA FEW015CB BKN018TCU
Forecast period: 0800 to 1200 UTC 23 February 2019
Forecast type: TEMPORARY: The following changes expected for less than half the time period
Visibility: missing
Ceiling: 1800 feet AGL
Clouds: few clouds at 1500 feet AGL
broken clouds at 1800 feet AGL
Weather: TSRA  (rain associated with thunderstorm(s))

 AIRPORT MAP

 RUNWAY INFORMATION
Runway 16 Runway length 6330 ft Runway width 92 ft
Runway elevation 10 ft Runway displaced threshold 250 ft Runway heading 150
Runway 34 Runway length 6330 ft Runway width 92 ft
Runway elevation 23 ft Runway displaced threshold 0 ft Runway heading 330

 AIRPORT FREQUENCIES
Type AFIS Name AFIS Frequency 119.2 MHZ

 AIRPORT NEAR NAVIGATION AIDS
Type VOR-DME Name Dzaoudzi Pamandzi Frequency 113500 KHZ
Type NDB Name Dzaoudzi Pamandzi Frequency 341 KHZ



Powered by Virtual Airlines Manager [v2.6.2]